Time;durP1;ratioP1;P1;durP2;ratioP2;P2;SDS_P1;SDS_P2;PMS_P1;PMS_P2;Temp;Humidity;BMP_temperature;BMP_pressure;BME280_temperature;BME280_humidity;BME280_pressure;Samples;Min_cycle;Max_cycle;Signal;HPM_P1;HPM_P2
2023/01/13 00:00:45;;;;;;;0.93;0.67;;;16.00;70.00;17.00;99766.00;;;;5009861;28;20186;-45
2023/01/13 00:03:11;;;;;;;0.70;0.70;;;16.00;70.10;17.00;99760.00;;;;5009780;28;20203;-47
2023/01/13 00:05:37;;;;;;;1.07;0.90;;;16.00;70.10;17.00;99758.00;;;;5009960;28;20176;-47
2023/01/13 00:08:05;;;;;;;0.83;0.83;;;16.00;70.10;17.00;99764.00;;;;5009307;28;20693;-47
2023/01/13 00:10:34;;;;;;;0.60;0.60;;;16.00;70.10;17.00;99767.00;;;;5011433;28;20233;-50
2023/01/13 00:13:00;;;;;;;0.90;0.90;;;16.00;70.10;17.00;99760.00;;;;5011542;28;20172;-48
2023/01/13 00:15:26;;;;;;;0.70;0.70;;;16.00;70.10;17.00;99749.00;;;;5009943;28;20565;-49
2023/01/13 00:17:52;;;;;;;1.40;0.67;;;15.90;70.00;17.00;99682.00;;;;5009269;28;20214;-48
2023/01/13 00:20:18;;;;;;;0.40;0.40;;;16.00;70.10;17.00;99750.00;;;;5009444;28;20210;-47
2023/01/13 00:22:43;;;;;;;0.80;0.50;;;15.90;70.00;17.00;99750.00;;;;5008773;28;20196;-47
2023/01/13 00:25:09;;;;;;;0.50;0.50;;;15.90;70.00;17.00;99744.00;;;;5009738;28;20207;-46
2023/01/13 00:27:35;;;;;;;0.67;0.67;;;15.90;70.00;17.00;99743.00;;;;5009011;28;20667;-48
2023/01/13 00:30:01;;;;;;;0.60;0.50;;;15.90;70.00;17.00;99747.00;;;;4992113;28;20183;-48
2023/01/13 00:32:27;;;;;;;0.47;0.40;;;15.90;70.10;17.00;99750.00;;;;5008733;28;20229;-47
2023/01/13 00:34:52;;;;;;;0.33;0.33;;;15.90;70.10;17.00;99749.00;;;;5013778;28;20188;-46
2023/01/13 00:37:18;;;;;;;0.40;0.40;;;15.90;70.10;17.00;99751.00;;;;5013498;28;20671;-46
2023/01/13 00:39:44;;;;;;;0.70;0.53;;;15.90;70.10;16.90;99752.00;;;;5008843;28;20206;-47
2023/01/13 00:44:55;;;;;;;0.63;0.57;;;15.90;70.10;16.90;99740.00;;;;5008120;28;20282;-45
2023/01/13 00:47:22;;;;;;;0.47;0.47;;;15.80;70.10;16.90;99746.00;;;;5009282;28;20219;-47
2023/01/13 00:49:48;;;;;;;0.77;0.63;;;15.90;70.20;16.90;99730.00;;;;5009536;28;20644;-47
2023/01/13 00:52:14;;;;;;;0.80;0.80;;;15.90;70.20;16.90;99718.00;;;;5009103;28;20191;-47
2023/01/13 00:54:40;;;;;;;0.97;0.87;;;15.80;70.00;16.90;99724.00;;;;5009274;28;20176;-46
2023/01/13 00:57:06;;;;;;;0.60;0.60;;;15.80;70.00;16.90;99721.00;;;;5008491;28;20265;-48
2023/01/13 00:59:31;;;;;;;0.50;0.50;;;15.80;70.20;16.90;99716.00;;;;5008974;28;20719;-46
2023/01/13 01:01:57;;;;;;;1.17;0.60;;;15.80;70.10;16.90;99708.00;;;;5008287;28;20182;-47
2023/01/13 01:04:23;;;;;;;0.70;0.60;;;15.90;70.30;16.90;99722.00;;;;5008516;28;20195;-46
2023/01/13 01:06:49;;;;;;;0.60;0.60;;;15.80;70.20;16.90;99724.00;;;;5008696;28;20727;-45
2023/01/13 01:09:15;;;;;;;0.70;0.70;;;15.80;70.20;16.90;99729.00;;;;5008530;28;20176;-48
2023/01/13 01:11:41;;;;;;;0.37;0.37;;;15.80;70.20;16.90;99733.00;;;;5008333;28;20182;-46
2023/01/13 01:14:08;;;;;;;1.10;0.63;;;15.80;70.10;16.90;99717.00;;;;5007792;28;20176;-47
2023/01/13 01:16:34;;;;;;;0.67;0.67;;;15.80;70.30;16.80;99731.00;;;;4991455;28;20493;-46
2023/01/13 01:18:59;;;;;;;0.60;0.60;;;15.80;70.10;16.80;99737.00;;;;5008392;28;20255;-48
2023/01/13 01:21:26;;;;;;;0.43;0.43;;;15.80;70.10;16.80;99746.00;;;;5008868;28;20290;-46
2023/01/13 01:23:52;;;;;;;0.70;0.50;;;15.70;70.00;16.80;99735.00;;;;5008937;28;20191;-47
2023/01/13 01:26:23;;;;;;;0.73;0.73;;;15.70;70.10;16.80;99736.00;;;;5009037;28;20231;-47
2023/01/13 01:28:48;;;;;;;0.43;0.37;;;15.70;70.10;16.80;99746.00;;;;5009142;28;20235;-46
2023/01/13 01:31:20;;;;;;;0.47;0.40;;;15.80;70.10;16.80;99744.00;;;;5006811;28;20207;-51
2023/01/13 01:33:46;;;;;;;0.60;0.60;;;15.70;70.00;16.80;99747.00;;;;5007820;28;20630;-47
2023/01/13 01:36:13;;;;;;;0.83;0.70;;;15.70;70.00;16.80;99769.00;;;;5008656;28;20191;-46
2023/01/13 01:38:39;;;;;;;0.50;0.50;;;15.70;70.10;16.80;99755.00;;;;5008543;28;20222;-46
2023/01/13 01:41:05;;;;;;;0.90;0.90;;;15.70;70.00;16.80;99747.00;;;;5016024;28;20176;-47
2023/01/13 01:44:03;;;;;;;0.40;0.40;;;15.70;70.70;16.80;99758.00;;;;5011673;28;20203;-46
2023/01/13 01:46:37;;;;;;;0.70;0.67;;;15.70;70.70;16.80;99754.00;;;;5007612;28;20190;-48
2023/01/13 01:49:19;;;;;;;1.00;0.80;;;15.70;69.90;16.80;99755.00;;;;5006919;28;20155;-47
2023/01/13 01:52:00;;;;;;;0.87;0.53;;;15.70;69.90;16.80;99728.00;;;;5007001;28;20168;-48
2023/01/13 01:54:37;;;;;;;0.53;0.53;;;15.70;69.90;16.70;99732.00;;;;5007509;28;20167;-47
2023/01/13 01:57:02;;;;;;;0.40;0.40;;;15.70;69.80;16.70;99756.00;;;;4992680;28;20254;-45
2023/01/13 01:59:28;;;;;;;1.17;0.90;;;15.60;69.70;16.70;99783.00;;;;5010753;28;20752;-45
2023/01/13 02:01:54;;;;;;;0.80;0.80;;;15.70;69.60;16.70;99778.00;;;;4994103;28;20179;-46
2023/01/13 02:04:28;;;;;;;0.80;0.80;;;15.60;69.50;16.70;99746.00;;;;5010615;28;20225;-47
2023/01/13 02:06:55;;;;;;;0.80;0.80;;;15.60;69.50;16.70;99731.00;;;;4995311;28;20199;-46
2023/01/13 02:09:21;;;;;;;1.43;1.20;;;15.60;69.40;16.70;99756.00;;;;4994990;28;20235;-45
2023/01/13 02:14:31;;;;;;;1.20;0.87;;;15.60;69.30;16.70;99744.00;;;;5012990;28;20750;-45
2023/01/13 02:17:18;;;;;;;0.77;0.77;;;15.60;69.40;16.70;99753.00;;;;5013920;28;20183;-45
2023/01/13 02:20:03;;;;;;;0.57;0.57;;;15.60;69.40;16.70;99767.00;;;;5011847;28;20187;-46
2023/01/13 02:22:47;;;;;;;1.03;0.90;;;15.60;69.40;16.70;99766.00;;;;5009363;28;20187;-48
2023/01/13 02:25:39;;;;;;;1.07;0.97;;;15.60;69.40;16.70;99761.00;;;;5010598;28;20152;-46
2023/01/13 02:31:40;;;;;;;1.13;0.90;;;15.60;70.10;16.70;99759.00;;;;5002354;28;20190;-45
2023/01/13 02:31:43;;;;;;;0.63;0.63;;;15.60;69.20;16.60;99759.00;;;;4999149;28;20176;-47
2023/01/13 02:34:16;;;;;;;0.77;0.70;;;15.60;69.30;16.60;99763.00;;;;5010211;28;20148;-46
2023/01/13 02:36:51;;;;;;;1.07;0.80;;;15.60;69.40;16.60;99686.00;;;;4993982;28;20190;-47
2023/01/13 02:39:21;;;;;;;0.90;0.90;;;15.60;69.30;16.60;99772.00;;;;5010172;28;20258;-48
2023/01/13 02:44:50;;;;;;;0.80;0.73;;;15.60;69.40;16.60;99783.00;;;;4997269;28;20166;-48
2023/01/13 02:47:25;;;;;;;0.80;0.73;;;15.50;69.30;16.60;99769.00;;;;4994648;28;20206;-48
2023/01/13 02:49:58;;;;;;;1.10;1.00;;;15.50;69.20;16.60;99752.00;;;;4997315;28;20719;-49
2023/01/13 02:52:49;;;;;;;1.17;0.93;;;15.60;69.20;16.60;99762.00;;;;5012153;28;20182;-48
2023/01/13 02:55:18;;;;;;;1.07;0.87;;;15.60;69.30;16.60;99762.00;;;;5009897;28;20156;-47
2023/01/13 02:57:44;;;;;;;0.70;0.70;;;15.50;69.20;16.60;99742.00;;;;4993823;28;20239;-48
2023/01/13 03:00:12;;;;;;;0.57;0.50;;;15.50;69.10;16.60;99761.00;;;;4993718;28;20698;-48
2023/01/13 03:02:38;;;;;;;1.40;0.90;;;15.50;69.00;16.60;99754.00;;;;4992635;28;20207;-47
2023/01/13 03:05:04;;;;;;;0.70;0.60;;;15.60;69.10;16.60;99742.00;;;;5009555;28;20183;-49
2023/01/13 03:07:45;;;;;;;1.20;1.10;;;15.50;69.00;16.60;99742.00;;;;5010898;28;20553;-48
2023/01/13 03:10:28;;;;;;;0.70;0.70;;;15.50;69.10;16.60;99749.00;;;;5001172;28;20168;-46
2023/01/13 03:13:32;;;;;;;0.93;0.87;;;15.50;69.10;16.60;99745.00;;;;4996373;28;20170;-47
2023/01/13 03:16:33;;;;;;;0.57;0.57;;;15.50;69.10;16.60;99719.00;;;;5010555;28;20298;-47
2023/01/13 03:19:10;;;;;;;1.00;0.90;;;15.50;69.20;16.50;99735.00;;;;4998671;28;20163;-47
2023/01/13 03:21:51;;;;;;;0.80;0.80;;;15.50;69.10;16.50;99736.00;;;;5022226;28;20612;-47
2023/01/13 03:24:24;;;;;;;1.47;1.10;;;15.50;69.20;16.50;99739.00;;;;5011550;28;20176;-46
2023/01/13 03:27:01;;;;;;;1.10;1.00;;;15.50;69.10;16.50;99749.00;;;;4993448;28;20196;-46
2023/01/13 03:29:44;;;;;;;1.00;0.90;;;15.40;69.00;16.50;99710.00;;;;4994087;28;20168;-47
2023/01/13 03:32:33;;;;;;;1.87;1.00;;;15.40;69.00;16.50;99740.00;;;;5008853;28;20160;-47
2023/01/13 03:35:22;;;;;;;1.50;1.07;;;15.50;69.10;16.50;99738.00;;;;4995254;28;20230;-47
2023/01/13 03:38:11;;;;;;;0.57;0.47;;;15.50;69.10;16.50;99757.00;;;;5008653;28;20164;-49
2023/01/13 03:40:43;;;;;;;1.10;1.00;;;15.40;69.00;16.50;99746.00;;;;4995541;28;20164;-47
2023/01/13 03:46:02;;;;;;;2.13;1.10;;;15.40;69.00;16.50;99747.00;;;;4995558;28;20203;-46
2023/01/13 03:48:28;;;;;;;1.20;0.90;;;15.40;69.00;16.50;99659.00;;;;5010365;28;20526;-45
2023/01/13 03:50:57;;;;;;;0.70;0.70;;;15.40;69.00;16.50;99741.00;;;;5017757;28;20176;-46
2023/01/13 03:53:46;;;;;;;1.03;1.00;;;15.40;69.00;16.50;99738.00;;;;5001649;28;20183;-46
2023/01/13 03:56:26;;;;;;;1.40;0.90;;;15.40;69.80;16.50;99739.00;;;;5014474;28;20195;-47
2023/01/13 03:58:52;;;;;;;0.87;0.87;;;15.40;69.10;16.40;99738.00;;;;4994011;28;20160;-46
2023/01/13 04:02:07;;;;;;;1.27;1.10;;;15.40;69.00;16.40;99748.00;;;;5009146;28;20186;-46
2023/01/13 04:04:44;;;;;;;1.23;1.00;;;15.40;69.00;16.40;99732.00;;;;4997256;28;20191;-46
2023/01/13 04:07:26;;;;;;;0.90;0.90;;;15.30;68.90;16.40;99760.00;;;;5007640;28;20211;-46
2023/01/13 04:09:55;;;;;;;1.10;1.00;;;15.40;69.00;16.40;99751.00;;;;5008392;28;20230;-47
2023/01/13 04:12:59;;;;;;;1.13;0.80;;;15.30;68.90;16.40;99750.00;;;;4991690;28;20160;-45
2023/01/13 04:15:20;;;;;;;1.00;1.00;;;15.30;68.90;16.40;99759.00;;;;5008373;28;20241;-47
2023/01/13 04:17:46;;;;;;;1.33;0.97;;;15.30;68.80;16.40;99759.00;;;;5008310;28;20191;-47
2023/01/13 04:20:12;;;;;;;1.00;0.90;;;15.30;68.80;16.40;99754.00;;;;5008893;28;20190;-47
2023/01/13 04:22:37;;;;;;;1.47;1.10;;;15.30;68.80;16.40;99744.00;;;;5009467;28;20730;-46
2023/01/13 04:25:04;;;;;;;1.00;0.90;;;15.30;68.70;16.40;99738.00;;;;5008762;28;20168;-46
2023/01/13 04:27:30;;;;;;;1.77;1.10;;;15.30;68.70;16.40;99756.00;;;;4992006;28;20223;-46
2023/01/13 04:29:55;;;;;;;1.10;0.97;;;15.30;69.00;16.40;99757.00;;;;5009327;28;20613;-49
2023/01/13 04:32:21;;;;;;;1.90;1.30;;;15.30;69.00;16.40;99765.00;;;;5008887;28;20219;-46
2023/01/13 04:34:47;;;;;;;2.90;1.20;;;15.30;68.80;16.40;99760.00;;;;5008907;28;20271;-48
2023/01/13 04:37:13;;;;;;;1.20;1.13;;;15.30;69.00;16.40;99765.00;;;;5008913;28;20187;-46
2023/01/13 04:39:38;;;;;;;2.10;1.00;;;15.30;68.90;16.40;99758.00;;;;5008620;28;20731;-47
2023/01/13 04:42:04;;;;;;;1.40;0.90;;;15.20;68.90;16.40;99755.00;;;;5017095;28;20180;-47
2023/01/13 04:44:34;;;;;;;1.73;0.90;;;15.20;68.80;16.40;99745.00;;;;5009376;28;20528;-46
2023/01/13 04:47:02;;;;;;;2.40;1.30;;;15.30;68.80;16.40;99746.00;;;;5010284;28;20257;-47
2023/01/13 04:49:28;;;;;;;2.93;1.23;;;15.20;68.60;16.40;99745.00;;;;5010199;28;20723;-46
2023/01/13 04:51:54;;;;;;;4.07;1.33;;;15.30;68.60;16.30;99751.00;;;;5009114;28;20258;-46
2023/01/13 04:54:19;;;;;;;3.77;1.60;;;15.30;68.60;16.30;99760.00;;;;5009685;28;20164;-46
2023/01/13 04:56:45;;;;;;;1.63;1.30;;;15.20;68.60;16.30;99759.00;;;;5009300;28;20198;-47
2023/01/13 04:59:11;;;;;;;3.20;1.60;;;15.20;68.50;16.30;99762.00;;;;5010241;28;20172;-46
2023/01/13 05:01:37;;;;;;;2.20;1.40;;;15.20;68.50;16.30;99755.00;;;;5010098;28;20172;-47
2023/01/13 05:04:03;;;;;;;5.10;1.60;;;15.30;68.60;16.30;99755.00;;;;5010272;28;20252;-47
2023/01/13 05:06:29;;;;;;;1.83;1.37;;;15.20;68.40;16.30;99744.00;;;;5009644;28;20603;-47
2023/01/13 05:08:56;;;;;;;3.33;1.50;;;15.20;68.40;16.30;99748.00;;;;5009773;28;20160;-46
2023/01/13 05:17:00;;;;;;;2.17;1.50;;;15.20;68.40;16.30;99727.00;;;;5015229;28;20206;-48
2023/01/13 05:19:34;;;;;;;1.93;1.17;;;15.20;68.30;16.20;99729.00;;;;5028050;28;20619;-47
2023/01/13 05:27:28;;;;;;;3.73;1.73;;;15.10;68.10;16.20;99743.00;;;;5009973;28;20644;-47
2023/01/13 05:29:54;;;;;;;2.47;1.50;;;15.20;68.20;16.20;99735.00;;;;5019414;28;20203;-47
2023/01/13 05:32:20;;;;;;;5.57;1.80;;;15.20;68.10;16.20;99739.00;;;;5029407;28;20672;-46
2023/01/13 05:34:46;;;;;;;3.07;1.87;;;15.10;68.00;16.20;99745.00;;;;5033357;28;20203;-46
2023/01/13 05:37:12;;;;;;;3.77;1.83;;;15.10;68.00;16.20;99746.00;;;;5031930;28;20237;-46
2023/01/13 05:45:08;;;;;;;6.93;2.23;;;15.10;68.00;16.20;99752.00;;;;5032493;28;20639;-47
2023/01/13 05:47:33;;;;;;;9.73;2.30;;;15.10;68.00;16.20;99771.00;;;;5028337;28;20201;-46
2023/01/13 05:49:59;;;;;;;13.20;2.93;;;15.10;68.00;16.20;99738.00;;;;5010827;28;20164;-47
2023/01/13 05:52:25;;;;;;;11.43;2.90;;;15.10;68.00;16.20;99739.00;;;;5011224;28;20206;-46
2023/01/13 05:54:50;;;;;;;9.83;2.90;;;15.00;67.80;16.20;99747.00;;;;5014758;28;20668;-47
2023/01/13 05:57:16;;;;;;;8.97;2.60;;;15.10;68.00;16.10;99766.00;;;;5011968;28;20188;-46
2023/01/13 05:59:42;;;;;;;10.13;3.03;;;15.00;67.90;16.10;99770.00;;;;5010492;28;20234;-46
2023/01/13 06:02:08;;;;;;;10.00;2.90;;;15.00;67.90;16.20;99773.00;;;;5011038;28;20180;-47
2023/01/13 06:04:33;;;;;;;6.90;2.70;;;15.10;67.90;16.10;99782.00;;;;5014338;28;20186;-47
2023/01/13 06:06:59;;;;;;;8.43;2.83;;;15.00;67.80;16.10;99776.00;;;;5015200;28;20214;-47
2023/01/13 06:09:25;;;;;;;8.67;2.60;;;15.10;68.00;16.10;99786.00;;;;5009836;28;20187;-46
2023/01/13 06:11:51;;;;;;;9.53;2.87;;;15.00;67.80;16.10;99783.00;;;;5010056;28;20198;-47
2023/01/13 06:14:16;;;;;;;9.53;2.70;;;15.00;67.90;16.10;99782.00;;;;5016207;28;20694;-46
2023/01/13 06:16:44;;;;;;;7.03;2.33;;;15.00;67.80;16.10;99780.00;;;;5009702;28;20946;-47
2023/01/13 06:19:11;;;;;;;7.17;2.50;;;15.00;67.80;16.10;99787.00;;;;5008276;28;20191;-47
2023/01/13 06:21:41;;;;;;;8.57;2.60;;;15.00;67.80;16.10;99785.00;;;;5007541;28;20175;-47
2023/01/13 06:24:07;;;;;;;6.17;2.40;;;15.00;67.80;16.10;99789.00;;;;5008341;28;20239;-46
2023/01/13 06:26:37;;;;;;;6.80;2.33;;;15.00;67.80;16.10;99795.00;;;;5008944;28;20195;-46
2023/01/13 06:29:03;;;;;;;5.43;2.30;;;15.00;68.00;16.10;99793.00;;;;5008387;28;20175;-45
2023/01/13 06:31:29;;;;;;;12.87;2.70;;;15.00;68.20;16.10;99798.00;;;;5010300;28;20872;-47
2023/01/13 06:34:02;;;;;;;7.63;2.60;;;15.00;68.10;16.10;99773.00;;;;4993304;28;20175;-49
2023/01/13 06:36:31;;;;;;;4.73;2.50;;;15.00;68.10;16.10;99787.00;;;;4991972;28;20223;-47
2023/01/13 06:38:58;;;;;;;5.50;2.30;;;14.90;68.00;16.10;99797.00;;;;4977419;28;20221;-47
2023/01/13 06:44:10;;;;;;;5.50;2.50;;;14.90;68.00;16.00;99803.00;;;;4990757;28;20222;-48
2023/01/13 06:46:36;;;;;;;4.73;2.20;;;14.90;68.10;16.00;99797.00;;;;5028687;28;20705;-48
2023/01/13 06:49:02;;;;;;;5.40;2.37;;;14.90;68.00;16.00;99796.00;;;;4994874;28;20717;-48
2023/01/13 06:51:27;;;;;;;6.10;2.40;;;14.90;67.90;16.00;99795.00;;;;5029429;28;20194;-48
2023/01/13 06:53:53;;;;;;;5.47;2.23;;;14.90;67.90;16.00;99803.00;;;;5027062;28;20171;-47
2023/01/13 06:56:19;;;;;;;6.40;2.30;;;14.90;67.90;16.00;99800.00;;;;5025428;28;20206;-48
2023/01/13 06:58:44;;;;;;;4.60;2.17;;;14.90;67.90;16.00;99800.00;;;;5021432;28;20186;-47
2023/01/13 07:01:10;;;;;;;5.67;2.40;;;14.90;67.90;16.00;99803.00;;;;5029058;28;20179;-47
2023/01/13 07:03:36;;;;;;;4.50;2.23;;;14.90;68.00;16.00;99805.00;;;;5029760;28;20187;-47
2023/01/13 07:06:02;;;;;;;6.87;2.20;;;14.80;67.90;16.00;99812.00;;;;5029645;28;20568;-47
2023/01/13 07:08:27;;;;;;;4.37;2.07;;;14.80;68.00;16.00;99732.00;;;;5028746;28;20183;-48
2023/01/13 07:10:53;;;;;;;5.33;2.20;;;14.80;68.00;16.00;99818.00;;;;5029185;28;20178;-47
2023/01/13 07:16:05;;;;;;;5.47;2.33;;;14.80;67.90;16.00;99812.00;;;;5030442;28;20272;-46
2023/01/13 07:18:31;;;;;;;4.13;2.20;;;14.80;68.00;16.00;99821.00;;;;5028822;28;20218;-47
2023/01/13 07:20:59;;;;;;;4.60;2.17;;;14.80;68.00;16.00;99826.00;;;;5029119;28;20660;-46
2023/01/13 07:23:30;;;;;;;3.53;1.97;;;14.80;67.80;16.00;99826.00;;;;5026678;28;20241;-47
2023/01/13 07:25:57;;;;;;;4.03;2.17;;;14.80;67.90;16.00;99831.00;;;;5029389;28;20198;-46
2023/01/13 07:28:24;;;;;;;3.93;2.10;;;14.80;67.80;16.00;99825.00;;;;5029238;28;20175;-47
2023/01/13 07:30:50;;;;;;;4.00;2.00;;;14.80;67.90;16.00;99825.00;;;;5028540;28;20277;-47
2023/01/13 07:33:17;;;;;;;2.93;1.73;;;14.80;67.80;16.00;99827.00;;;;5027449;28;20182;-47
2023/01/13 07:35:43;;;;;;;3.37;2.00;;;14.80;67.80;16.00;99820.00;;;;5028949;28;20183;-47
2023/01/13 07:38:09;;;;;;;3.70;2.07;;;14.80;67.80;16.00;99824.00;;;;5029537;28;20179;-47
2023/01/13 07:40:35;;;;;;;3.60;1.80;;;14.80;67.80;15.90;99818.00;;;;5027777;28;20191;-47
2023/01/13 07:45:45;;;;;;;3.03;1.77;;;14.70;67.60;15.90;99839.00;;;;5030261;28;20233;-47
2023/01/13 07:48:11;;;;;;;3.50;1.90;;;14.80;67.80;15.90;99832.00;;;;5010779;28;20199;-47
2023/01/13 07:50:37;;;;;;;3.53;2.20;;;14.70;67.70;15.90;99842.00;;;;5008753;28;20290;-48
2023/01/13 07:53:03;;;;;;;5.90;2.00;;;14.70;67.70;15.90;99843.00;;;;5007273;28;20679;-47
2023/01/13 07:55:28;;;;;;;3.10;1.87;;;14.70;67.70;15.90;99846.00;;;;5009058;28;20183;-47
2023/01/13 07:57:54;;;;;;;3.13;1.97;;;14.70;67.70;15.90;99859.00;;;;5008101;28;20192;-46
2023/01/13 08:00:20;;;;;;;2.83;1.70;;;14.70;67.60;15.90;99862.00;;;;5009450;28;20179;-46
2023/01/13 08:02:46;;;;;;;3.83;2.13;;;14.70;67.70;15.90;99848.00;;;;5015157;28;20625;-47
2023/01/13 08:05:12;;;;;;;4.60;2.10;;;14.80;67.60;15.90;99855.00;;;;5016602;28;20199;-47
2023/01/13 08:07:39;;;;;;;4.03;1.87;;;14.70;67.40;15.90;99857.00;;;;5013331;28;20212;-46
2023/01/13 08:10:05;;;;;;;4.37;1.97;;;14.80;67.60;15.90;99859.00;;;;5007837;28;20191;-47
2023/01/13 08:15:15;;;;;;;4.37;2.03;;;14.80;67.60;15.90;99871.00;;;;5009107;28;20233;-47
2023/01/13 08:17:41;;;;;;;6.07;2.10;;;14.90;67.70;15.90;99854.00;;;;5008407;28;20299;-47
2023/01/13 08:20:07;;;;;;;2.67;1.73;;;14.90;67.40;15.90;99864.00;;;;5008612;28;20620;-47
2023/01/13 08:22:33;;;;;;;5.20;1.67;;;15.00;67.30;16.00;99863.00;;;;5009114;28;20747;-46
2023/01/13 08:25:00;;;;;;;2.50;1.80;;;15.10;68.00;16.00;99863.00;;;;5012254;28;20271;-46
2023/01/13 08:27:26;;;;;;;4.17;2.03;;;15.30;67.70;16.10;99867.00;;;;5023259;28;20234;-45
2023/01/13 08:29:51;;;;;;;1.90;1.60;;;15.40;67.20;16.20;99891.00;;;;5008694;28;20179;-46
2023/01/13 08:32:17;;;;;;;4.47;1.67;;;15.50;67.20;16.20;99880.00;;;;5014346;28;20192;-46
2023/01/13 08:34:43;;;;;;;2.37;1.70;;;15.70;67.10;16.30;99885.00;;;;5013144;28;20187;-46
2023/01/13 08:37:08;;;;;;;2.17;1.80;;;15.80;67.00;16.40;99894.00;;;;5009871;28;20196;-47
2023/01/13 08:39:35;;;;;;;3.33;1.73;;;16.00;66.80;16.50;99888.00;;;;5009330;28;20179;-47
2023/01/13 08:42:02;;;;;;;2.67;1.67;;;16.10;66.50;16.60;99883.00;;;;5009684;28;20180;-47
2023/01/13 08:44:29;;;;;;;3.83;1.80;;;16.30;66.50;16.70;99886.00;;;;5010530;28;20184;-46
2023/01/13 08:46:55;;;;;;;2.73;1.93;;;16.40;66.20;16.80;99886.00;;;;5010450;28;20263;-46
2023/01/13 08:49:21;;;;;;;2.57;1.60;;;16.60;65.90;16.90;99880.00;;;;5012001;28;20235;-49
2023/01/13 08:51:47;;;;;;;3.07;2.07;;;16.60;65.80;17.00;99891.00;;;;5019000;28;20182;-47
2023/01/13 08:54:13;;;;;;;2.20;1.77;;;16.80;66.00;17.10;99868.00;;;;5014185;28;20180;-47
2023/01/13 08:56:42;;;;;;;3.10;1.80;;;16.80;65.90;17.20;99901.00;;;;4993208;28;20294;-47
2023/01/13 08:59:13;;;;;;;2.33;1.80;;;17.00;65.80;17.30;99906.00;;;;5009168;28;20168;-47
2023/01/13 09:01:39;;;;;;;3.10;1.90;;;17.00;65.60;17.40;99899.00;;;;5008110;28;20184;-48
2023/01/13 09:04:06;;;;;;;3.13;2.20;;;17.10;65.50;17.50;99906.00;;;;5011815;28;20211;-48
2023/01/13 09:06:32;;;;;;;9.30;2.43;;;17.20;65.60;17.60;99903.00;;;;5010732;28;20260;-48
2023/01/13 09:08:58;;;;;;;3.20;1.80;;;17.30;65.50;17.70;99902.00;;;;5011892;28;20183;-48
2023/01/13 09:14:19;;;;;;;8.93;2.00;;;17.40;65.40;17.80;99899.00;;;;5017928;28;20269;-48
2023/01/13 09:16:45;;;;;;;7.13;1.80;;;17.50;65.50;17.90;99899.00;;;;5024846;28;20203;-46
2023/01/13 09:19:11;;;;;;;3.77;2.00;;;17.60;65.40;17.90;99904.00;;;;5032872;28;20189;-46
2023/01/13 09:21:36;;;;;;;6.60;2.40;;;17.60;65.60;18.00;99910.00;;;;5031672;28;20199;-46
2023/01/13 09:24:02;;;;;;;5.47;2.17;;;17.70;67.50;18.10;99881.00;;;;5034455;28;20204;-47
2023/01/13 09:26:28;;;;;;;36.47;4.57;;;17.80;67.00;18.20;99914.00;;;;5034111;28;20543;-47
2023/01/13 09:28:54;;;;;;;26.87;4.07;;;17.80;67.20;18.20;99911.00;;;;5033591;28;20252;-46
2023/01/13 09:31:19;;;;;;;19.27;3.80;;;17.80;67.60;18.30;99923.00;;;;5033274;28;20182;-47
2023/01/13 09:36:29;;;;;;;17.73;3.17;;;18.00;67.70;18.40;99898.00;;;;5032299;28;20201;-47
2023/01/13 09:38:55;;;;;;;17.80;3.27;;;18.00;68.00;18.50;99925.00;;;;5033874;28;20186;-47
2023/01/13 09:44:39;;;;;;;20.67;3.63;;;18.00;68.20;18.50;99921.00;;;;5031499;28;20226;-47
2023/01/13 09:47:13;;;;;;;13.40;3.10;;;18.00;67.80;18.50;99907.00;;;;5031736;28;20294;-47
2023/01/13 09:49:40;;;;;;;13.40;2.90;;;18.10;67.80;18.60;99932.00;;;;5031761;28;20163;-47
2023/01/13 09:52:19;;;;;;;12.30;2.87;;;18.00;67.70;18.60;99931.00;;;;5031620;28;20235;-46
2023/01/13 09:54:52;;;;;;;7.23;2.70;;;18.00;67.60;18.60;99928.00;;;;5032956;28;20627;-47
2023/01/13 09:57:18;;;;;;;10.93;3.00;;;18.10;67.70;18.60;99926.00;;;;5032254;28;20749;-47
2023/01/13 09:59:44;;;;;;;12.43;2.73;;;18.00;67.70;18.60;99918.00;;;;5032801;28;20262;-47
2023/01/13 10:02:38;;;;;;;7.73;2.60;;;18.00;67.80;18.60;99924.00;;;;5032706;28;20180;-49
2023/01/13 10:05:43;;;;;;;12.07;2.90;;;17.90;67.80;18.60;99924.00;;;;5032130;28;20193;-46
2023/01/13 10:08:18;;;;;;;7.50;2.50;;;17.90;67.80;18.60;99935.00;;;;5014828;28;20620;-46
2023/01/13 10:10:55;;;;;;;8.47;2.60;;;17.90;67.80;18.50;99939.00;;;;5017083;28;20166;-46
2023/01/13 10:13:27;;;;;;;7.77;2.30;;;17.80;67.80;18.50;99930.00;;;;5033837;28;20177;-46
2023/01/13 10:16:05;;;;;;;8.07;2.73;;;17.80;67.90;18.50;99936.00;;;;5033363;28;20194;-47
2023/01/13 10:19:00;;;;;;;11.37;2.47;;;17.80;67.90;18.50;99921.00;;;;5031554;28;20633;-49
2023/01/13 10:21:56;;;;;;;6.17;2.40;;;17.70;67.80;18.50;99911.00;;;;5031253;28;20178;-46
2023/01/13 10:24:44;;;;;;;5.33;2.40;;;17.70;67.90;18.40;99930.00;;;;5031277;28;20283;-47
2023/01/13 10:27:34;;;;;;;6.93;2.30;;;17.60;68.00;18.40;99898.00;;;;5031934;28;20639;-46
2023/01/13 10:30:16;;;;;;;8.90;2.43;;;17.60;68.00;18.40;99930.00;;;;5031503;28;20661;-47
2023/01/13 10:32:59;;;;;;;5.00;2.30;;;17.60;68.10;18.40;99920.00;;;;5031304;28;20166;-48
2023/01/13 10:36:11;;;;;;;7.40;2.47;;;17.60;68.10;18.40;99932.00;;;;5031124;28;20166;-46
2023/01/13 10:38:40;;;;;;;5.57;2.20;;;17.50;68.10;18.30;99945.00;;;;5031121;28;20177;-47
2023/01/13 10:41:26;;;;;;;4.80;2.40;;;17.50;68.10;18.30;99945.00;;;;5032263;28;20254;-47
2023/01/13 10:44:03;;;;;;;5.73;2.40;;;17.50;68.10;18.30;99949.00;;;;5032026;28;20684;-47
2023/01/13 10:46:31;;;;;;;4.70;2.20;;;17.50;68.20;18.30;99949.00;;;;5032153;28;20316;-48
2023/01/13 10:49:03;;;;;;;4.70;2.40;;;17.40;68.10;18.30;99949.00;;;;5030722;28;20263;-47
2023/01/13 10:51:37;;;;;;;5.80;2.33;;;17.40;68.20;18.20;99943.00;;;;5031788;28;20636;-46
2023/01/13 10:54:12;;;;;;;5.07;2.00;;;17.40;68.20;18.20;99948.00;;;;5032143;28;20180;-47
2023/01/13 10:56:42;;;;;;;5.50;2.37;;;17.30;68.20;18.20;99966.00;;;;5031795;28;20192;-48
2023/01/13 10:59:25;;;;;;;4.80;2.07;;;17.40;68.20;18.20;99962.00;;;;5030588;28;20179;-47
2023/01/13 11:02:07;;;;;;;5.67;2.40;;;17.30;69.00;18.20;99972.00;;;;5032058;28;20177;-46
2023/01/13 11:04:52;;;;;;;4.13;2.33;;;17.30;68.00;18.20;99959.00;;;;5031371;28;20253;-47
2023/01/13 11:07:37;;;;;;;5.60;2.20;;;17.30;68.00;18.10;99970.00;;;;5031169;28;20598;-46
2023/01/13 11:10:26;;;;;;;6.00;2.20;;;17.20;68.00;18.10;99965.00;;;;5030692;28;20203;-47
2023/01/13 11:13:04;;;;;;;5.10;2.10;;;17.20;68.00;18.10;99975.00;;;;5030796;28;20222;-46
2023/01/13 11:15:49;;;;;;;5.40;2.30;;;17.20;68.00;18.10;99972.00;;;;5031853;28;20467;-46
2023/01/13 11:19:01;;;;;;;5.30;2.33;;;17.20;68.20;18.00;99970.00;;;;5031639;28;20182;-47
2023/01/13 11:21:55;;;;;;;5.67;2.30;;;17.10;68.00;18.00;99961.00;;;;5030104;28;20647;-46
2023/01/13 11:24:35;;;;;;;5.30;2.30;;;17.10;67.90;18.00;99982.00;;;;5031553;28;20611;-47
2023/01/13 11:27:32;;;;;;;6.33;2.03;;;17.10;68.00;18.00;99970.00;;;;5030577;28;20274;-47
2023/01/13 11:30:19;;;;;;;6.37;2.10;;;17.00;68.00;17.90;99983.00;;;;5035045;28;20294;-49
2023/01/13 11:33:14;;;;;;;4.20;2.10;;;17.00;67.90;17.90;99985.00;;;;5032406;28;20164;-48
2023/01/13 11:36:05;;;;;;;4.63;2.47;;;17.00;68.00;17.90;99972.00;;;;5030732;28;20735;-48
2023/01/13 11:38:46;;;;;;;4.20;2.40;;;17.00;68.00;17.80;99989.00;;;;5037929;28;20572;-48
2023/01/13 11:41:32;;;;;;;5.13;2.20;;;17.00;68.00;17.80;99987.00;;;;5028747;28;20195;-48
2023/01/13 11:44:24;;;;;;;3.53;2.20;;;16.90;67.80;17.80;99992.00;;;;5022021;28;20489;-47
2023/01/13 11:46:50;;;;;;;5.60;2.43;;;16.90;67.80;17.80;99989.00;;;;5030896;28;20200;-48
2023/01/13 11:49:26;;;;;;;3.83;2.10;;;16.90;68.10;17.80;99980.00;;;;5013316;28;20172;-48
2023/01/13 11:52:02;;;;;;;5.40;2.10;;;16.90;68.00;17.80;99987.00;;;;5013309;28;20174;-47
2023/01/13 11:55:04;;;;;;;4.53;2.10;;;16.90;68.00;17.80;99980.00;;;;4997405;28;20552;-48
2023/01/13 11:57:49;;;;;;;5.27;2.30;;;16.80;68.00;17.70;99988.00;;;;5002925;28;20535;-47
2023/01/13 12:00:31;;;;;;;7.17;2.33;;;16.90;68.10;17.70;99968.00;;;;5030784;28;20179;-47
2023/01/13 12:03:23;;;;;;;5.70;2.40;;;16.80;68.10;17.70;99970.00;;;;5030900;28;20197;-46